Time;durP1;ratioP1;P1;durP2;ratioP2;P2;SDS_P1;SDS_P2;PMS_P1;PMS_P2;Temp;Humidity;BMP_temperature;BMP_pressure;BME280_temperature;BME280_humidity;BME280_pressure;Samples;Min_cycle;Max_cycle;Signal;HPM_P1;HPM_P2
2023/03/22 00:00:45;;;;;;;16.63;8.00;;;;;;;;;;5046452;28;20184;-75
2023/03/22 00:03:11;;;;;;;11.23;6.73;;;;;;;;;;5046009;28;20198;-75
2023/03/22 00:05:39;;;;;;;8.83;6.27;;;;;;;;;;5044101;28;20198;-75
2023/03/22 00:08:05;;;;;;;18.07;9.67;;;;;;;;;;5041023;28;20235;-76
2023/03/22 00:10:33;;;;;;;15.80;8.63;;;;;;;;;;5042433;28;20235;-75
2023/03/22 00:12:59;;;;;;;9.93;6.43;;;;;;;;;;5042864;28;20877;-75
2023/03/22 00:15:28;;;;;;;16.63;9.07;;;;;;;;;;5042065;28;20201;-75
2023/03/22 00:17:57;;;;;;;22.67;11.23;;;;;;;;;;5042948;28;20277;-75
2023/03/22 00:20:24;;;;;;;15.00;8.90;;;;;;;;;;5041854;28;20178;-75
2023/03/22 00:22:51;;;;;;;19.83;10.37;;;;;;;;;;5043486;28;20255;-76
2023/03/22 00:25:17;;;;;;;27.83;13.47;;;;;;;;;;5045160;28;20205;-75
2023/03/22 00:27:43;;;;;;;19.07;9.43;;;;;;;;;;5042182;28;20293;-74
2023/03/22 00:30:10;;;;;;;13.83;8.53;;;;;;;;;;5058498;28;20247;-76
2023/03/22 00:32:37;;;;;;;13.97;7.70;;;;;;;;;;5042658;28;20213;-76
2023/03/22 00:35:04;;;;;;;13.30;7.43;;;;;;;;;;5058323;28;20209;-75
2023/03/22 00:37:33;;;;;;;10.63;6.63;;;;;;;;;;5041984;28;20263;-75
2023/03/22 00:40:09;;;;;;;11.17;6.80;;;;;;;;;;5043560;28;20265;-76
2023/03/22 00:42:35;;;;;;;13.53;6.93;;;;;;;;;;5040194;28;20185;-75
2023/03/22 00:45:02;;;;;;;12.63;6.60;;;;;;;;;;5038625;28;20245;-75
2023/03/22 00:47:28;;;;;;;13.67;7.27;;;;;;;;;;5041371;28;20194;-76
2023/03/22 00:49:54;;;;;;;18.80;8.70;;;;;;;;;;5041399;28;21022;-75
2023/03/22 00:52:21;;;;;;;10.03;6.37;;;;;;;;;;5043644;28;20266;-76
2023/03/22 00:54:47;;;;;;;11.13;6.70;;;;;;;;;;5041292;28;20251;-75
2023/03/22 00:57:14;;;;;;;11.17;6.10;;;;;;;;;;5055814;28;20185;-74
2023/03/22 00:59:41;;;;;;;15.03;7.60;;;;;;;;;;5023357;28;20207;-75
2023/03/22 01:02:08;;;;;;;12.13;7.03;;;;;;;;;;5043559;28;20280;-76
2023/03/22 01:04:35;;;;;;;16.83;7.47;;;;;;;;;;5041932;28;20255;-76
2023/03/22 01:07:04;;;;;;;8.30;5.90;;;;;;;;;;5042639;28;20612;-76
2023/03/22 01:09:32;;;;;;;6.17;4.80;;;;;;;;;;5045254;28;20680;-75
2023/03/22 01:11:59;;;;;;;7.57;5.00;;;;;;;;;;5031093;28;20240;-76
2023/03/22 01:14:25;;;;;;;7.07;5.00;;;;;;;;;;5042893;28;20249;-77
2023/03/22 01:16:56;;;;;;;9.83;6.30;;;;;;;;;;5043263;28;20201;-76
2023/03/22 01:19:23;;;;;;;7.30;5.43;;;;;;;;;;5044481;28;20225;-76
2023/03/22 01:21:49;;;;;;;12.07;5.30;;;;;;;;;;5042556;28;20277;-75
2023/03/22 01:24:16;;;;;;;6.70;4.80;;;;;;;;;;5042217;28;20235;-76
2023/03/22 01:26:42;;;;;;;15.83;9.77;;;;;;;;;;5044218;28;20217;-77
2023/03/22 01:29:08;;;;;;;12.17;7.53;;;;;;;;;;5041263;28;20264;-75
2023/03/22 01:31:34;;;;;;;9.83;6.33;;;;;;;;;;5047172;28;20205;-75
2023/03/22 01:34:01;;;;;;;7.63;5.67;;;;;;;;;;5039947;28;20197;-76
2023/03/22 01:36:28;;;;;;;7.30;5.07;;;;;;;;;;5046593;28;20730;-75
2023/03/22 01:38:54;;;;;;;7.17;5.37;;;;;;;;;;5040777;28;20185;-77
2023/03/22 01:41:21;;;;;;;8.40;5.20;;;;;;;;;;5045760;28;20178;-76
2023/03/22 01:44:07;;;;;;;8.30;4.83;;;;;;;;;;5059911;28;21626;-75
2023/03/22 01:46:33;;;;;;;8.60;4.73;;;;;;;;;;5045025;28;20700;-76
2023/03/22 01:49:00;;;;;;;8.57;4.70;;;;;;;;;;5050800;28;20594;-75
2023/03/22 01:51:27;;;;;;;6.77;4.50;;;;;;;;;;5034554;28;20810;-75
2023/03/22 01:54:08;;;;;;;5.27;4.43;;;;;;;;;;5047312;28;20268;-75
2023/03/22 01:56:36;;;;;;;7.10;4.57;;;;;;;;;;5044905;28;20166;-74
2023/03/22 01:59:04;;;;;;;6.40;4.40;;;;;;;;;;5049227;28;20327;-75
2023/03/22 02:01:47;;;;;;;6.30;4.43;;;;;;;;;;5047930;28;20186;-75
2023/03/22 02:04:18;;;;;;;5.37;4.70;;;;;;;;;;5050743;28;20212;-76
2023/03/22 02:06:45;;;;;;;6.47;5.73;;;;;;;;;;5047312;28;20186;-75
2023/03/22 02:09:17;;;;;;;6.97;5.27;;;;;;;;;;5064775;28;20726;-75
2023/03/22 02:11:45;;;;;;;7.43;5.50;;;;;;;;;;5062790;28;20202;-76
2023/03/22 02:14:21;;;;;;;6.27;5.13;;;;;;;;;;5043260;28;20308;-75
2023/03/22 02:17:35;;;;;;;5.90;5.17;;;;;;;;;;5044396;28;20209;-76
2023/03/22 02:20:07;;;;;;;6.77;5.30;;;;;;;;;;4926283;28;20180;-76
2023/03/22 02:22:56;;;;;;;7.47;5.10;;;;;;;;;;5030328;28;20240;-75
2023/03/22 02:25:23;;;;;;;7.30;5.30;;;;;;;;;;5043923;28;20206;-76
2023/03/22 02:28:03;;;;;;;6.30;5.17;;;;;;;;;;5043949;28;20190;-77
2023/03/22 02:30:54;;;;;;;7.67;5.23;;;;;;;;;;5061162;28;20265;-77
2023/03/22 02:33:40;;;;;;;8.93;5.50;;;;;;;;;;5043358;28;20193;-76
2023/03/22 02:36:10;;;;;;;7.40;5.07;;;;;;;;;;5047271;28;20213;-74
2023/03/22 02:38:56;;;;;;;7.07;5.70;;;;;;;;;;5048036;28;20182;-76
2023/03/22 02:41:36;;;;;;;8.43;5.40;;;;;;;;;;5048028;28;20185;-75
2023/03/22 02:44:11;;;;;;;7.13;5.57;;;;;;;;;;5030553;28;20174;-76
2023/03/22 02:46:42;;;;;;;8.60;6.27;;;;;;;;;;5031625;28;20760;-76
2023/03/22 02:49:18;;;;;;;11.10;6.63;;;;;;;;;;5046225;28;20255;-76
2023/03/22 02:51:47;;;;;;;10.23;6.33;;;;;;;;;;5034240;28;20582;-76
2023/03/22 02:54:20;;;;;;;7.87;6.30;;;;;;;;;;5043441;28;20708;-76
2023/03/22 02:56:49;;;;;;;8.03;5.90;;;;;;;;;;5046655;28;20208;-76
2023/03/22 02:59:16;;;;;;;11.63;6.43;;;;;;;;;;5046558;28;20182;-76
2023/03/22 03:01:45;;;;;;;10.13;6.23;;;;;;;;;;5047070;28;20232;-75
2023/03/22 03:04:20;;;;;;;7.80;5.73;;;;;;;;;;5044989;28;20684;-75
2023/03/22 03:06:48;;;;;;;8.40;5.93;;;;;;;;;;5047661;28;20185;-76
2023/03/22 03:09:18;;;;;;;9.67;6.13;;;;;;;;;;5048931;28;20186;-76
2023/03/22 03:11:49;;;;;;;9.47;6.23;;;;;;;;;;5047439;28;20209;-76
2023/03/22 03:14:22;;;;;;;8.33;6.00;;;;;;;;;;5047131;28;20181;-76
2023/03/22 03:16:54;;;;;;;6.87;5.30;;;;;;;;;;5045102;28;20178;-76
2023/03/22 03:19:26;;;;;;;6.80;6.10;;;;;;;;;;5063557;28;20206;-76
2023/03/22 03:22:02;;;;;;;7.47;6.23;;;;;;;;;;5045324;28;20194;-75
2023/03/22 03:24:41;;;;;;;11.40;6.73;;;;;;;;;;5044575;28;20884;-76
2023/03/22 03:27:16;;;;;;;6.70;5.60;;;;;;;;;;5045315;28;20185;-76
2023/03/22 03:29:49;;;;;;;8.03;5.83;;;;;;;;;;5047170;28;20170;-76
2023/03/22 03:32:35;;;;;;;10.47;6.97;;;;;;;;;;5047824;28;20215;-76
2023/03/22 03:35:08;;;;;;;7.03;5.93;;;;;;;;;;5027184;28;20705;-76
2023/03/22 03:37:40;;;;;;;10.33;6.93;;;;;;;;;;5044239;28;20711;-75
2023/03/22 03:40:08;;;;;;;18.97;10.20;;;;;;;;;;5045873;28;20193;-76
2023/03/22 03:42:37;;;;;;;11.17;7.80;;;;;;;;;;5045839;28;20213;-76
2023/03/22 03:45:04;;;;;;;13.13;8.13;;;;;;;;;;5042582;28;20205;-76
2023/03/22 03:47:31;;;;;;;9.87;7.30;;;;;;;;;;5045196;28;20198;-75
2023/03/22 03:49:57;;;;;;;9.60;6.97;;;;;;;;;;5044094;28;20251;-74
2023/03/22 03:52:25;;;;;;;10.27;7.07;;;;;;;;;;5045573;28;20747;-76
2023/03/22 03:54:51;;;;;;;8.17;6.40;;;;;;;;;;5043960;28;20697;-76
2023/03/22 03:57:24;;;;;;;10.00;7.00;;;;;;;;;;5044282;28;20673;-76
2023/03/22 03:59:50;;;;;;;8.13;6.30;;;;;;;;;;5028895;28;20216;-76
2023/03/22 04:02:28;;;;;;;11.67;8.10;;;;;;;;;;5044901;28;20359;-76
2023/03/22 04:04:58;;;;;;;10.30;7.20;;;;;;;;;;5043042;28;20275;-75
2023/03/22 04:07:24;;;;;;;10.00;7.13;;;;;;;;;;5044780;28;20182;-76
2023/03/22 04:09:51;;;;;;;12.50;7.97;;;;;;;;;;5045560;28;20284;-76
2023/03/22 04:12:25;;;;;;;9.03;6.67;;;;;;;;;;5043871;28;20209;-76
2023/03/22 04:15:14;;;;;;;12.63;7.63;;;;;;;;;;5038949;28;20210;-75
2023/03/22 04:17:43;;;;;;;8.30;6.80;;;;;;;;;;5042425;28;20178;-75
2023/03/22 04:20:12;;;;;;;7.67;6.13;;;;;;;;;;5038363;28;21029;-75
2023/03/22 04:22:39;;;;;;;9.77;6.00;;;;;;;;;;5044505;28;20232;-74
2023/03/22 04:25:11;;;;;;;9.33;6.77;;;;;;;;;;5045436;28;20213;-74
2023/03/22 04:27:41;;;;;;;8.33;5.77;;;;;;;;;;5027621;28;20186;-74
2023/03/22 04:30:11;;;;;;;7.73;5.57;;;;;;;;;;5042674;28;20186;-75
2023/03/22 04:32:56;;;;;;;7.83;5.40;;;;;;;;;;5041428;28;20206;-74
2023/03/22 04:35:34;;;;;;;7.73;5.90;;;;;;;;;;5026495;28;20213;-75
2023/03/22 04:38:00;;;;;;;8.17;6.20;;;;;;;;;;5043014;28;20189;-74
2023/03/22 04:40:34;;;;;;;5.73;4.90;;;;;;;;;;5028630;28;20178;-75
2023/03/22 04:43:17;;;;;;;9.03;6.63;;;;;;;;;;5042844;28;20193;-76
2023/03/22 04:45:53;;;;;;;7.03;5.10;;;;;;;;;;5042170;28;20323;-75
2023/03/22 04:48:26;;;;;;;7.10;5.63;;;;;;;;;;5041350;28;20186;-75
2023/03/22 04:50:53;;;;;;;7.13;5.87;;;;;;;;;;5061761;28;20610;-76
2023/03/22 04:53:26;;;;;;;7.43;5.60;;;;;;;;;;5026277;28;20187;-75
2023/03/22 04:55:57;;;;;;;7.40;5.70;;;;;;;;;;5042413;28;20209;-76
2023/03/22 04:58:25;;;;;;;7.70;5.30;;;;;;;;;;5058178;28;20261;-75
2023/03/22 05:00:52;;;;;;;6.50;5.40;;;;;;;;;;5044921;28;20263;-75
2023/03/22 05:03:20;;;;;;;7.07;5.30;;;;;;;;;;5043432;28;20790;-75
2023/03/22 05:05:58;;;;;;;6.87;5.53;;;;;;;;;;5041532;28;20229;-75
2023/03/22 05:08:33;;;;;;;6.65;5.25;;;;;;;;;;5045023;28;21023;-76
2023/03/22 05:11:05;;;;;;;5.83;5.20;;;;;;;;;;5046103;28;20206;-75
2023/03/22 05:13:31;;;;;;;7.57;5.60;;;;;;;;;;5041830;28;20912;-75
2023/03/22 05:15:58;;;;;;;7.03;5.50;;;;;;;;;;5045230;28;20230;-74
2023/03/22 05:18:32;;;;;;;8.60;5.53;;;;;;;;;;5029657;28;20763;-75
2023/03/22 05:21:02;;;;;;;6.93;5.23;;;;;;;;;;5044318;28;20726;-75
2023/03/22 05:23:28;;;;;;;9.33;5.20;;;;;;;;;;5044165;28;20178;-75
2023/03/22 05:25:57;;;;;;;5.70;4.93;;;;;;;;;;5045792;28;20822;-75
2023/03/22 05:28:25;;;;;;;5.40;4.73;;;;;;;;;;5041404;28;20239;-75
2023/03/22 05:31:02;;;;;;;6.60;4.83;;;;;;;;;;5051280;28;20205;-75
2023/03/22 05:33:40;;;;;;;8.40;5.17;;;;;;;;;;5041784;28;20708;-75
2023/03/22 05:36:10;;;;;;;7.47;5.30;;;;;;;;;;5043558;28;20186;-75
2023/03/22 05:38:45;;;;;;;5.80;5.07;;;;;;;;;;5044582;28;20193;-75
2023/03/22 05:41:12;;;;;;;6.57;4.80;;;;;;;;;;5054019;28;20186;-75
2023/03/22 05:43:38;;;;;;;6.43;5.00;;;;;;;;;;5056889;28;20190;-76
2023/03/22 05:46:06;;;;;;;7.20;5.07;;;;;;;;;;5023284;28;20217;-76
2023/03/22 05:48:44;;;;;;;5.13;4.63;;;;;;;;;;5047315;28;20275;-75
2023/03/22 05:51:16;;;;;;;5.97;4.90;;;;;;;;;;5047043;28;20573;-76
2023/03/22 05:53:43;;;;;;;6.07;4.90;;;;;;;;;;5061053;28;20265;-75
2023/03/22 05:56:13;;;;;;;5.50;4.70;;;;;;;;;;5046752;28;20869;-76
2023/03/22 05:58:42;;;;;;;5.77;4.57;;;;;;;;;;5028336;28;20190;-75
2023/03/22 06:01:11;;;;;;;6.50;4.80;;;;;;;;;;5046223;28;20664;-75
2023/03/22 06:03:47;;;;;;;5.83;4.70;;;;;;;;;;5042390;28;20279;-74
2023/03/22 06:06:33;;;;;;;5.60;4.50;;;;;;;;;;5042431;28;20709;-74
2023/03/22 06:09:06;;;;;;;7.00;4.87;;;;;;;;;;5039947;28;20212;-73
2023/03/22 06:11:34;;;;;;;5.53;4.80;;;;;;;;;;5042194;28;20226;-75
2023/03/22 06:14:01;;;;;;;7.03;5.40;;;;;;;;;;5041730;28;20190;-75
2023/03/22 06:16:39;;;;;;;5.73;5.00;;;;;;;;;;5039899;28;20192;-75
2023/03/22 06:19:05;;;;;;;10.37;5.10;;;;;;;;;;5043640;28;20672;-76
2023/03/22 06:21:32;;;;;;;4.90;4.37;;;;;;;;;;5044715;28;20944;-72
2023/03/22 06:23:58;;;;;;;5.53;4.30;;;;;;;;;;5045444;28;20209;-74
2023/03/22 06:26:25;;;;;;;5.67;4.47;;;;;;;;;;5051130;28;20212;-74
2023/03/22 06:28:51;;;;;;;7.00;4.83;;;;;;;;;;5047274;28;20178;-73
2023/03/22 06:31:17;;;;;;;6.43;4.87;;;;;;;;;;5031987;28;20228;-73
2023/03/22 06:33:49;;;;;;;6.23;4.60;;;;;;;;;;5009315;28;20547;-73
2023/03/22 06:36:35;;;;;;;6.93;4.50;;;;;;;;;;5042353;28;20182;-76
2023/03/22 06:39:11;;;;;;;5.40;4.60;;;;;;;;;;5026621;28;20181;-76
2023/03/22 06:41:38;;;;;;;6.80;4.40;;;;;;;;;;5046695;28;20181;-75
2023/03/22 06:44:04;;;;;;;5.73;4.83;;;;;;;;;;5043473;28;20182;-75
2023/03/22 06:46:44;;;;;;;5.93;4.80;;;;;;;;;;5046999;28;20304;-75
2023/03/22 06:49:20;;;;;;;7.47;4.53;;;;;;;;;;5043036;28;20231;-75
2023/03/22 06:51:49;;;;;;;6.10;4.53;;;;;;;;;;5046413;28;20284;-75
2023/03/22 06:54:15;;;;;;;5.50;4.73;;;;;;;;;;5041010;28;20252;-76
2023/03/22 06:56:42;;;;;;;6.13;4.63;;;;;;;;;;5047786;28;20178;-76
2023/03/22 06:59:08;;;;;;;5.70;4.57;;;;;;;;;;5046392;28;20178;-76
2023/03/22 07:01:36;;;;;;;6.27;5.20;;;;;;;;;;5041833;28;20621;-75
2023/03/22 07:04:05;;;;;;;6.30;4.40;;;;;;;;;;5046270;28;20192;-73
2023/03/22 07:06:31;;;;;;;7.47;5.00;;;;;;;;;;5047021;28;20182;-74
2023/03/22 07:08:58;;;;;;;8.17;5.00;;;;;;;;;;5044053;28;20184;-74
2023/03/22 07:11:29;;;;;;;8.63;4.73;;;;;;;;;;5027930;28;20206;-74
2023/03/22 07:13:58;;;;;;;7.47;4.63;;;;;;;;;;5043124;28;20190;-74
2023/03/22 07:16:28;;;;;;;8.57;5.00;;;;;;;;;;5044902;28;20205;-74
2023/03/22 07:18:57;;;;;;;7.40;4.97;;;;;;;;;;5033603;28;20178;-73
2023/03/22 07:21:24;;;;;;;7.53;4.77;;;;;;;;;;5046188;28;20185;-74
2023/03/22 07:23:55;;;;;;;5.30;4.50;;;;;;;;;;5025883;28;20201;-74
2023/03/22 07:26:26;;;;;;;6.50;4.33;;;;;;;;;;5046610;28;20182;-74
2023/03/22 07:28:55;;;;;;;5.77;4.80;;;;;;;;;;5046035;28;20176;-75
2023/03/22 07:31:28;;;;;;;6.23;4.40;;;;;;;;;;5045455;28;20821;-74
2023/03/22 07:34:00;;;;;;;5.60;4.63;;;;;;;;;;5046220;28;20182;-74
2023/03/22 07:36:30;;;;;;;6.20;4.00;;;;;;;;;;5046314;28;20188;-75
2023/03/22 07:38:56;;;;;;;6.83;4.30;;;;;;;;;;5047034;28;20189;-74
2023/03/22 07:41:29;;;;;;;6.53;4.40;;;;;;;;;;5027770;28;20189;-74
2023/03/22 07:44:15;;;;;;;6.33;4.57;;;;;;;;;;5040636;28;20281;-74
2023/03/22 07:46:45;;;;;;;5.93;4.77;;;;;;;;;;5059874;28;20188;-75
2023/03/22 07:49:26;;;;;;;6.03;5.20;;;;;;;;;;5047063;28;20181;-74
2023/03/22 07:52:06;;;;;;;5.53;4.50;;;;;;;;;;5020169;28;20636;-74
2023/03/22 07:54:32;;;;;;;7.17;4.63;;;;;;;;;;5044092;28;20206;-73
2023/03/22 07:56:59;;;;;;;6.70;5.10;;;;;;;;;;5044598;28;20304;-73
2023/03/22 07:59:26;;;;;;;6.03;4.40;;;;;;;;;;5046979;28;20186;-74
2023/03/22 08:01:53;;;;;;;6.17;4.30;;;;;;;;;;5046120;28;20196;-77
2023/03/22 08:04:34;;;;;;;6.50;4.43;;;;;;;;;;5042977;28;20256;-74
2023/03/22 08:07:20;;;;;;;6.07;4.40;;;;;;;;;;5034748;28;20277;-74
2023/03/22 08:09:48;;;;;;;5.83;4.20;;;;;;;;;;5025010;28;20185;-74
2023/03/22 08:12:14;;;;;;;5.47;4.30;;;;;;;;;;5044359;28;20202;-74
2023/03/22 08:14:41;;;;;;;7.03;4.70;;;;;;;;;;5046225;28;20233;-73
2023/03/22 08:17:15;;;;;;;6.90;4.27;;;;;;;;;;5030020;28;20184;-74
2023/03/22 08:19:41;;;;;;;9.83;4.50;;;;;;;;;;5036730;28;20208;-73
2023/03/22 08:22:11;;;;;;;8.40;4.67;;;;;;;;;;5045272;28;20181;-74
2023/03/22 08:24:55;;;;;;;9.30;4.90;;;;;;;;;;5043669;28;20205;-74
2023/03/22 08:27:28;;;;;;;6.30;4.50;;;;;;;;;;5039619;28;20190;-74
2023/03/22 08:29:57;;;;;;;8.20;4.73;;;;;;;;;;5045670;28;20205;-74
2023/03/22 08:32:24;;;;;;;6.43;4.37;;;;;;;;;;5046778;28;20198;-74
2023/03/22 08:34:51;;;;;;;6.97;4.47;;;;;;;;;;5044576;28;20194;-74
2023/03/22 08:37:19;;;;;;;6.00;3.90;;;;;;;;;;5045291;28;20276;-73
2023/03/22 08:39:46;;;;;;;7.40;4.37;;;;;;;;;;5030444;28;20233;-73
2023/03/22 08:42:30;;;;;;;5.00;3.90;;;;;;;;;;5030420;28;20182;-73
2023/03/22 08:44:57;;;;;;;5.07;3.90;;;;;;;;;;5045269;28;20204;-73
2023/03/22 08:47:26;;;;;;;3.90;3.47;;;;;;;;;;5046163;28;20192;-73
2023/03/22 08:49:56;;;;;;;6.73;4.23;;;;;;;;;;5039673;28;20194;-73
2023/03/22 08:52:35;;;;;;;4.37;3.63;;;;;;;;;;5045666;28;20217;-72
2023/03/22 08:55:07;;;;;;;5.33;4.03;;;;;;;;;;5039089;28;20729;-73
2023/03/22 08:57:52;;;;;;;5.10;3.87;;;;;;;;;;5043309;28;20784;-74
2023/03/22 09:00:28;;;;;;;5.93;4.10;;;;;;;;;;5023868;28;20193;-74
2023/03/22 09:03:08;;;;;;;4.83;4.00;;;;;;;;;;5045556;28;20192;-74
2023/03/22 09:05:34;;;;;;;5.57;3.87;;;;;;;;;;5045715;28;20198;-74
2023/03/22 09:08:05;;;;;;;6.47;3.90;;;;;;;;;;5044092;28;20186;-74
2023/03/22 09:10:38;;;;;;;5.47;3.90;;;;;;;;;;5042494;28;20253;-74
2023/03/22 09:13:05;;;;;;;5.13;3.37;;;;;;;;;;5028290;28;20845;-73
2023/03/22 09:15:31;;;;;;;4.47;3.50;;;;;;;;;;5029189;28;20582;-73
2023/03/22 09:18:15;;;;;;;5.33;3.40;;;;;;;;;;5028076;28;20193;-73
2023/03/22 09:20:42;;;;;;;4.07;3.17;;;;;;;;;;5045491;28;20178;-73
2023/03/22 09:23:08;;;;;;;5.07;3.43;;;;;;;;;;5049755;28;20202;-74
2023/03/22 09:25:34;;;;;;;6.07;3.07;;;;;;;;;;5042959;28;20887;-74
2023/03/22 09:28:01;;;;;;;3.90;3.03;;;;;;;;;;5047506;28;20231;-74
2023/03/22 09:30:27;;;;;;;4.87;3.00;;;;;;;;;;5049662;28;20170;-73
2023/03/22 09:32:54;;;;;;;3.73;2.40;;;;;;;;;;5044281;28;20672;-72
2023/03/22 09:35:20;;;;;;;3.43;2.10;;;;;;;;;;5032220;28;20194;-73
2023/03/22 09:37:55;;;;;;;3.10;2.10;;;;;;;;;;5039925;28;20189;-73
2023/03/22 09:40:24;;;;;;;4.47;2.20;;;;;;;;;;5048985;28;20184;-74
2023/03/22 09:42:52;;;;;;;2.77;2.10;;;;;;;;;;5044824;28;20188;-73
2023/03/22 09:45:28;;;;;;;2.80;2.03;;;;;;;;;;5048532;28;20298;-73
2023/03/22 09:47:55;;;;;;;2.40;1.80;;;;;;;;;;5045807;28;20186;-73
2023/03/22 09:50:23;;;;;;;2.43;2.00;;;;;;;;;;5043123;28;20185;-74
2023/03/22 09:52:49;;;;;;;3.47;1.90;;;;;;;;;;5043465;28;20586;-75
2023/03/22 09:55:36;;;;;;;2.03;1.60;;;;;;;;;;5046072;28;20665;-74
2023/03/22 09:58:07;;;;;;;5.57;1.80;;;;;;;;;;5049853;28;20200;-73
2023/03/22 10:00:47;;;;;;;2.27;1.47;;;;;;;;;;5047479;28;20602;-73
2023/03/22 10:03:21;;;;;;;1.80;1.50;;;;;;;;;;5043335;28;20201;-72
2023/03/22 10:06:13;;;;;;;2.83;1.50;;;;;;;;;;5049979;28;20928;-72
2023/03/22 10:08:44;;;;;;;3.10;1.37;;;;;;;;;;5042627;28;20665;-73
2023/03/22 10:11:17;;;;;;;2.37;1.40;;;;;;;;;;5049102;28;20182;-73
2023/03/22 10:13:55;;;;;;;2.60;1.47;;;;;;;;;;5043612;28;20551;-73
2023/03/22 10:16:26;;;;;;;3.43;1.47;;;;;;;;;;5038282;28;20281;-72
2023/03/22 10:18:55;;;;;;;1.77;1.40;;;;;;;;;;5039046;28;20182;-74
2023/03/22 10:21:21;;;;;;;3.13;1.40;;;;;;;;;;5045878;28;20260;-74
2023/03/22 10:23:53;;;;;;;1.73;1.53;;;;;;;;;;5044368;28;20196;-73
2023/03/22 10:26:22;;;;;;;2.70;1.70;;;;;;;;;;5040716;28;20716;-74
2023/03/22 10:28:58;;;;;;;3.03;1.50;;;;;;;;;;5045701;28;20216;-74
2023/03/22 10:31:26;;;;;;;1.77;1.57;;;;;;;;;;5045449;28;20209;-73
2023/03/22 10:33:55;;;;;;;2.40;1.53;;;;;;;;;;5049047;28;20186;-73
2023/03/22 10:36:23;;;;;;;1.83;1.53;;;;;;;;;;5045980;28;20237;-74
2023/03/22 10:38:51;;;;;;;2.53;1.70;;;;;;;;;;5031226;28;20174;-74
2023/03/22 10:41:19;;;;;;;1.80;1.60;;;;;;;;;;5048630;28;20590;-74
2023/03/22 10:43:47;;;;;;;1.27;1.10;;;;;;;;;;5043367;28;20186;-73
2023/03/22 10:46:27;;;;;;;2.23;1.40;;;;;;;;;;5064616;28;20820;-73
2023/03/22 10:48:56;;;;;;;2.53;1.30;;;;;;;;;;5043734;28;20235;-74
2023/03/22 10:51:44;;;;;;;4.43;2.00;;;;;;;;;;5045975;28;20252;-74
2023/03/22 10:54:14;;;;;;;3.23;2.10;;;;;;;;;;5044905;28;20182;-74
2023/03/22 10:56:40;;;;;;;2.30;1.60;;;;;;;;;;5040100;28;20186;-73
2023/03/22 10:59:07;;;;;;;2.20;1.53;;;;;;;;;;5046619;28;20268;-74
2023/03/22 11:01:36;;;;;;;1.90;1.50;;;;;;;;;;5047624;28;20728;-75
2023/03/22 11:04:15;;;;;;;2.23;1.60;;;;;;;;;;5045620;28;20185;-75
2023/03/22 11:06:52;;;;;;;3.20;1.80;;;;;;;;;;5044440;28;20229;-74
2023/03/22 11:09:19;;;;;;;2.07;1.50;;;;;;;;;;5045177;28;20653;-75
2023/03/22 11:11:45;;;;;;;1.63;1.53;;;;;;;;;;5039212;28;20274;-75
2023/03/22 11:14:30;;;;;;;3.10;1.70;;;;;;;;;;5046305;28;20182;-78
2023/03/22 11:17:01;;;;;;;2.47;1.70;;;;;;;;;;5028408;28;20224;-74
2023/03/22 11:19:31;;;;;;;2.00;1.60;;;;;;;;;;5049367;28;20188;-74
2023/03/22 11:21:58;;;;;;;2.03;1.60;;;;;;;;;;5054334;28;20559;-73
2023/03/22 11:24:29;;;;;;;2.73;1.50;;;;;;;;;;5051110;28;20669;-73
2023/03/22 11:27:17;;;;;;;2.67;1.70;;;;;;;;;;5039819;28;20197;-75
2023/03/22 11:29:45;;;;;;;3.07;1.70;;;;;;;;;;5044135;28;20197;-73
2023/03/22 11:32:25;;;;;;;2.97;1.80;;;;;;;;;;5046139;28;20837;-73
2023/03/22 11:34:58;;;;;;;1.70;1.60;;;;;;;;;;5042611;28;20198;-74
2023/03/22 11:37:24;;;;;;;2.43;1.70;;;;;;;;;;5035035;28;20178;-74
2023/03/22 11:39:50;;;;;;;2.23;1.73;;;;;;;;;;5043279;28;20204;-73
2023/03/22 11:42:18;;;;;;;2.27;1.60;;;;;;;;;;5044160;28;20259;-73
2023/03/22 11:44:45;;;;;;;2.80;1.90;;;;;;;;;;5045827;28;20205;-73
2023/03/22 11:47:12;;;;;;;2.80;1.57;;;;;;;;;;5045553;28;20178;-71
2023/03/22 11:49:39;;;;;;;4.17;1.77;;;;;;;;;;5043962;28;20291;-78
2023/03/22 11:52:10;;;;;;;2.43;1.60;;;;;;;;;;5042021;28;20271;-78
2023/03/22 11:54:38;;;;;;;1.50;1.40;;;;;;;;;;5042014;28;20202;-77
2023/03/22 11:57:09;;;;;;;1.90;1.40;;;;;;;;;;5031459;28;20760;-76
2023/03/22 11:59:47;;;;;;;1.50;1.40;;;;;;;;;;5046440;28;20727;-77
2023/03/22 12:02:35;;;;;;;2.70;1.73;;;;;;;;;;5040282;28;20192;-76
2023/03/22 12:05:11;;;;;;;3.70;1.77;;;;;;;;;;5046635;28;20267;-80
2023/03/22 12:07:38;;;;;;;2.37;1.50;;;;;;;;;;5048678;28;20189;-81
2023/03/22 12:10:10;;;;;;;1.70;1.30;;;;;;;;;;5031531;28;20193;-78
2023/03/22 12:12:39;;;;;;;2.93;1.80;;;;;;;;;;5044473;28;20206;-78
2023/03/22 12:15:11;;;;;;;1.80;1.40;;;;;;;;;;5046570;28;20202;-77
2023/03/22 12:17:41;;;;;;;2.70;1.20;;;;;;;;;;5044680;28;20198;-77
2023/03/22 12:20:21;;;;;;;1.80;1.50;;;;;;;;;;5044933;28;20185;-75
2023/03/22 12:22:51;;;;;;;2.20;1.40;;;;;;;;;;5044294;28;20273;-75
2023/03/22 12:25:21;;;;;;;1.77;1.20;;;;;;;;;;5038372;28;20233;-75
2023/03/22 12:27:49;;;;;;;3.77;1.57;;;;;;;;;;5045997;28;20217;-75
2023/03/22 12:30:26;;;;;;;1.70;1.43;;;;;;;;;;5043819;28;20269;-76
2023/03/22 12:33:25;;;;;;;1.93;1.40;;;;;;;;;;5043602;28;20292;-76
2023/03/22 12:35:53;;;;;;;3.60;1.50;;;;;;;;;;5007334;28;20671;-75
2023/03/22 12:38:19;;;;;;;2.70;1.50;;;;;;;;;;5043712;28;20249;-75
2023/03/22 12:40:46;;;;;;;2.20;1.27;;;;;;;;;;5043249;28;20201;-76
2023/03/22 12:43:31;;;;;;;3.40;1.50;;;;;;;;;;5045137;28;20188;-76
2023/03/22 12:45:58;;;;;;;1.87;1.30;;;;;;;;;;5028672;28;20327;-75
2023/03/22 12:48:34;;;;;;;3.10;1.50;;;;;;;;;;5043599;28;20184;-76
2023/03/22 12:51:08;;;;;;;3.70;1.70;;;;;;;;;;5044806;28;20234;-76
2023/03/22 12:53:41;;;;;;;1.93;1.40;;;;;;;;;;5044056;28;20183;-76
2023/03/22 12:56:18;;;;;;;1.80;1.33;;;;;;;;;;5045872;28;20200;-75
2023/03/22 12:58:54;;;;;;;2.03;1.20;;;;;;;;;;5048697;28;20184;-75
2023/03/22 13:01:28;;;;;;;3.03;1.30;;;;;;;;;;5045946;28;20243;-77
2023/03/22 13:03:56;;;;;;;2.03;1.17;;;;;;;;;;5047187;28;20233;-76
2023/03/22 13:06:46;;;;;;;1.80;1.40;;;;;;;;;;5042259;28;20565;-75
2023/03/22 13:09:15;;;;;;;2.47;1.40;;;;;;;;;;5039783;28;20597;-72
2023/03/22 13:12:07;;;;;;;1.60;1.20;;;;;;;;;;5043062;28;20201;-72
2023/03/22 13:14:49;;;;;;;4.10;1.30;;;;;;;;;;5044973;28;20213;-72
2023/03/22 13:17:38;;;;;;;3.50;1.20;;;;;;;;;;5029079;28;20200;-72
2023/03/22 13:20:09;;;;;;;1.73;1.00;;;;;;;;;;5043650;28;20182;-74
2023/03/22 13:22:41;;;;;;;2.33;1.20;;;;;;;;;;5046203;28;20184;-73
2023/03/22 13:25:20;;;;;;;2.37;1.27;;;;;;;;;;5050322;28;20212;-78
2023/03/22 13:27:51;;;;;;;1.70;1.23;;;;;;;;;;5049991;28;20200;-79
2023/03/22 13:30:20;;;;;;;2.23;1.23;;;;;;;;;;5050525;28;20188;-78
2023/03/22 13:32:52;;;;;;;1.20;1.10;;;;;;;;;;5043886;28;20302;-76
2023/03/22 13:35:26;;;;;;;3.80;1.30;;;;;;;;;;5060014;28;20723;-74
2023/03/22 13:37:53;;;;;;;2.73;1.30;;;;;;;;;;5038476;28;20179;-74
2023/03/22 13:40:26;;;;;;;3.43;1.60;;;;;;;;;;5042974;28;20183;-73
2023/03/22 13:42:52;;;;;;;2.27;1.30;;;;;;;;;;5047046;28;20243;-74
2023/03/22 13:45:30;;;;;;;5.90;1.40;;;;;;;;;;5035915;28;20210;-75
2023/03/22 13:48:10;;;;;;;2.67;1.30;;;;;;;;;;5040860;28;20178;-77
2023/03/22 13:50:37;;;;;;;1.67;1.10;;;;;;;;;;5043610;28;20182;-76
2023/03/22 13:53:05;;;;;;;3.50;1.30;;;;;;;;;;5042100;28;20209;-77
2023/03/22 13:55:56;;;;;;;1.50;1.20;;;;;;;;;;5029437;28;20652;-75
2023/03/22 13:58:41;;;;;;;3.43;1.40;;;;;;;;;;5046064;28;20203;-76
2023/03/22 14:01:13;;;;;;;2.67;1.30;;;;;;;;;;5041863;28;20185;-76
2023/03/22 14:03:44;;;;;;;3.67;1.40;;;;;;;;;;5026850;28;20189;-75
2023/03/22 14:06:14;;;;;;;2.30;1.30;;;;;;;;;;5041041;28;20227;-76
2023/03/22 14:08:41;;;;;;;1.70;1.00;;;;;;;;;;5046828;28;20198;-74
2023/03/22 14:11:15;;;;;;;2.37;1.23;;;;;;;;;;5044016;28;20734;-73
2023/03/22 14:13:48;;;;;;;1.80;1.00;;;;;;;;;;5045302;28;20740;-73
2023/03/22 14:16:14;;;;;;;1.90;1.20;;;;;;;;;;5043301;28;20877;-74
2023/03/22 14:18:42;;;;;;;2.90;1.30;;;;;;;;;;5039146;28;20676;-75
2023/03/22 14:21:13;;;;;;;1.30;1.00;;;;;;;;;;5050672;28;20675;-75
2023/03/22 14:23:42;;;;;;;1.50;1.30;;;;;;;;;;5046045;28;20292;-73
2023/03/22 14:26:14;;;;;;;2.97;1.20;;;;;;;;;;5043456;28;20198;-74
2023/03/22 14:28:40;;;;;;;3.57;1.00;;;;;;;;;;5039934;28;20320;-74
2023/03/22 14:31:19;;;;;;;2.73;1.60;;;;;;;;;;5041726;28;20182;-74
2023/03/22 14:33:45;;;;;;;3.13;1.23;;;;;;;;;;5059060;28;20273;-73
2023/03/22 14:36:13;;;;;;;1.33;1.10;;;;;;;;;;5039289;28;20201;-74
2023/03/22 14:38:41;;;;;;;2.03;1.20;;;;;;;;;;5044794;28;20213;-75
2023/03/22 14:41:16;;;;;;;2.80;1.37;;;;;;;;;;5044088;28;20671;-73
2023/03/22 14:43:45;;;;;;;5.40;1.30;;;;;;;;;;5045009;28;20211;-74
2023/03/22 14:46:14;;;;;;;3.17;1.30;;;;;;;;;;5041134;28;20308;-75
2023/03/22 14:48:41;;;;;;;2.97;1.50;;;;;;;;;;5038993;28;20205;-74
2023/03/22 14:51:36;;;;;;;3.77;1.30;;;;;;;;;;5043010;28;20263;-74
2023/03/22 14:54:10;;;;;;;3.67;1.70;;;;;;;;;;5030941;28;20198;-74
2023/03/22 14:56:41;;;;;;;2.93;1.40;;;;;;;;;;5024077;28;20181;-74
2023/03/22 14:59:10;;;;;;;2.40;1.37;;;;;;;;;;5043816;28;20186;-75
2023/03/22 15:01:39;;;;;;;1.47;1.17;;;;;;;;;;5038914;28;20182;-74
2023/03/22 15:04:13;;;;;;;2.80;1.53;;;;;;;;;;5039407;28;20179;-74
2023/03/22 15:06:55;;;;;;;1.87;1.30;;;;;;;;;;5044518;28;20689;-74